sensor_id;sensor_type;location;lat;lon;timestamp;P1;durP1;ratioP1;P2;durP2;ratioP2
12451;SDS011;6291;48.924;12.204;2022-08-04T00:04:26;3.17;;;1.13;;
12451;SDS011;6291;48.924;12.204;2022-08-04T00:09:38;2.33;;;1.58;;
12451;SDS011;6291;48.924;12.204;2022-08-04T00:14:46;1.85;;;1.50;;
12451;SDS011;6291;48.924;12.204;2022-08-04T00:19:52;1.60;;;1.50;;
12451;SDS011;6291;48.924;12.204;2022-08-04T00:25:00;1.70;;;1.60;;
12451;SDS011;6291;48.924;12.204;2022-08-04T00:30:05;1.63;;;1.52;;
12451;SDS011;6291;48.924;12.204;2022-08-04T00:35:11;2.23;;;1.67;;
12451;SDS011;6291;48.924;12.204;2022-08-04T00:40:22;3.05;;;1.42;;
12451;SDS011;6291;48.924;12.204;2022-08-04T00:45:48;2.60;;;1.77;;
12451;SDS011;6291;48.924;12.204;2022-08-04T00:51:23;3.13;;;1.80;;
12451;SDS011;6291;48.924;12.204;2022-08-04T00:56:40;3.75;;;1.77;;
12451;SDS011;6291;48.924;12.204;2022-08-04T01:02:09;2.00;;;1.73;;
12451;SDS011;6291;48.924;12.204;2022-08-04T01:07:29;3.33;;;1.88;;
12451;SDS011;6291;48.924;12.204;2022-08-04T01:13:04;3.57;;;1.90;;
12451;SDS011;6291;48.924;12.204;2022-08-04T01:18:29;4.13;;;2.07;;
12451;SDS011;6291;48.924;12.204;2022-08-04T01:29:14;2.30;;;2.10;;
12451;SDS011;6291;48.924;12.204;2022-08-04T01:34:18;2.80;;;2.30;;
12451;SDS011;6291;48.924;12.204;2022-08-04T01:39:23;4.78;;;2.33;;
12451;SDS011;6291;48.924;12.204;2022-08-04T01:44:43;2.60;;;1.98;;
12451;SDS011;6291;48.924;12.204;2022-08-04T01:49:50;4.75;;;2.70;;
12451;SDS011;6291;48.924;12.204;2022-08-04T01:54:56;3.40;;;2.40;;
12451;SDS011;6291;48.924;12.204;2022-08-04T02:00:03;2.63;;;2.10;;
12451;SDS011;6291;48.924;12.204;2022-08-04T02:05:08;2.35;;;2.00;;
12451;SDS011;6291;48.924;12.204;2022-08-04T02:10:16;2.42;;;2.10;;
12451;SDS011;6291;48.924;12.204;2022-08-04T02:15:32;2.40;;;2.15;;
12451;SDS011;6291;48.924;12.204;2022-08-04T02:20:45;2.38;;;2.00;;
12451;SDS011;6291;48.924;12.204;2022-08-04T02:25:53;2.40;;;2.20;;
12451;SDS011;6291;48.924;12.204;2022-08-04T02:31:03;4.43;;;2.40;;
12451;SDS011;6291;48.924;12.204;2022-08-04T02:36:19;2.30;;;2.10;;
12451;SDS011;6291;48.924;12.204;2022-08-04T02:41:25;2.35;;;1.80;;
12451;SDS011;6291;48.924;12.204;2022-08-04T02:46:32;3.42;;;2.00;;
12451;SDS011;6291;48.924;12.204;2022-08-04T02:51:39;2.80;;;2.08;;
12451;SDS011;6291;48.924;12.204;2022-08-04T02:56:44;4.13;;;3.30;;
12451;SDS011;6291;48.924;12.204;2022-08-04T03:01:53;12.17;;;9.90;;
12451;SDS011;6291;48.924;12.204;2022-08-04T03:07:19;7.80;;;5.68;;
12451;SDS011;6291;48.924;12.204;2022-08-04T03:12:52;5.90;;;4.78;;
12451;SDS011;6291;48.924;12.204;2022-08-04T03:18:17;4.40;;;4.00;;
12451;SDS011;6291;48.924;12.204;2022-08-04T03:29:58;2.93;;;2.10;;
12451;SDS011;6291;48.924;12.204;2022-08-04T03:35:15;3.53;;;2.55;;
12451;SDS011;6291;48.924;12.204;2022-08-04T03:40:59;3.63;;;2.33;;
12451;SDS011;6291;48.924;12.204;2022-08-04T03:46:40;2.72;;;2.53;;
12451;SDS011;6291;48.924;12.204;2022-08-04T03:51:57;3.03;;;2.70;;
12451;SDS011;6291;48.924;12.204;2022-08-04T04:03:12;4.15;;;2.30;;
12451;SDS011;6291;48.924;12.204;2022-08-04T04:08:49;2.95;;;2.40;;
12451;SDS011;6291;48.924;12.204;2022-08-04T04:20:04;3.00;;;2.70;;
12451;SDS011;6291;48.924;12.204;2022-08-04T04:25:24;3.08;;;2.75;;
12451;SDS011;6291;48.924;12.204;2022-08-04T04:30:39;3.53;;;2.53;;
12451;SDS011;6291;48.924;12.204;2022-08-04T04:35:52;3.40;;;3.10;;
12451;SDS011;6291;48.924;12.204;2022-08-04T04:41:09;3.70;;;2.70;;
12451;SDS011;6291;48.924;12.204;2022-08-04T04:46:27;3.20;;;2.70;;
12451;SDS011;6291;48.924;12.204;2022-08-04T04:51:37;2.70;;;2.50;;
12451;SDS011;6291;48.924;12.204;2022-08-04T04:56:47;4.30;;;3.90;;
12451;SDS011;6291;48.924;12.204;2022-08-04T05:07:44;3.28;;;2.70;;
12451;SDS011;6291;48.924;12.204;2022-08-04T05:13:35;2.80;;;2.60;;
12451;SDS011;6291;48.924;12.204;2022-08-04T05:19:07;5.70;;;2.92;;
12451;SDS011;6291;48.924;12.204;2022-08-04T05:24:19;3.03;;;2.60;;
12451;SDS011;6291;48.924;12.204;2022-08-04T05:29:28;4.57;;;2.50;;
12451;SDS011;6291;48.924;12.204;2022-08-04T05:34:42;4.30;;;2.53;;
12451;SDS011;6291;48.924;12.204;2022-08-04T05:39:57;4.03;;;2.40;;
12451;SDS011;6291;48.924;12.204;2022-08-04T05:45:07;4.07;;;2.55;;
12451;SDS011;6291;48.924;12.204;2022-08-04T05:50:11;3.38;;;2.40;;
12451;SDS011;6291;48.924;12.204;2022-08-04T05:55:15;4.03;;;2.50;;
12451;SDS011;6291;48.924;12.204;2022-08-04T06:00:41;3.83;;;2.40;;
12451;SDS011;6291;48.924;12.204;2022-08-04T06:05:52;3.70;;;2.30;;
12451;SDS011;6291;48.924;12.204;2022-08-04T06:11:01;2.72;;;2.15;;
12451;SDS011;6291;48.924;12.204;2022-08-04T06:16:08;5.63;;;2.38;;
12451;SDS011;6291;48.924;12.204;2022-08-04T06:21:30;5.75;;;2.30;;
12451;SDS011;6291;48.924;12.204;2022-08-04T06:26:36;4.57;;;2.30;;
12451;SDS011;6291;48.924;12.204;2022-08-04T06:31:42;6.38;;;2.50;;
12451;SDS011;6291;48.924;12.204;2022-08-04T06:37:08;4.47;;;2.00;;
12451;SDS011;6291;48.924;12.204;2022-08-04T06:42:24;2.95;;;2.00;;
12451;SDS011;6291;48.924;12.204;2022-08-04T06:47:30;2.90;;;2.40;;
12451;SDS011;6291;48.924;12.204;2022-08-04T06:52:34;3.28;;;2.00;;
12451;SDS011;6291;48.924;12.204;2022-08-04T06:57:38;2.25;;;1.80;;
12451;SDS011;6291;48.924;12.204;2022-08-04T07:02:44;4.27;;;1.80;;
12451;SDS011;6291;48.924;12.204;2022-08-04T07:07:50;3.13;;;1.60;;
12451;SDS011;6291;48.924;12.204;2022-08-04T07:12:59;2.80;;;1.80;;
12451;SDS011;6291;48.924;12.204;2022-08-04T07:18:05;3.38;;;1.92;;
12451;SDS011;6291;48.924;12.204;2022-08-04T07:23:08;2.40;;;1.90;;
12451;SDS011;6291;48.924;12.204;2022-08-04T07:28:14;4.50;;;2.00;;
12451;SDS011;6291;48.924;12.204;2022-08-04T07:33:18;2.55;;;1.73;;
12451;SDS011;6291;48.924;12.204;2022-08-04T07:38:22;1.85;;;1.70;;
12451;SDS011;6291;48.924;12.204;2022-08-04T07:43:28;3.03;;;1.63;;
12451;SDS011;6291;48.924;12.204;2022-08-04T07:48:34;2.15;;;1.95;;
12451;SDS011;6291;48.924;12.204;2022-08-04T07:53:39;3.20;;;1.65;;
12451;SDS011;6291;48.924;12.204;2022-08-04T07:58:56;2.22;;;1.73;;
12451;SDS011;6291;48.924;12.204;2022-08-04T08:04:01;2.95;;;1.88;;
12451;SDS011;6291;48.924;12.204;2022-08-04T08:09:07;3.65;;;1.80;;
12451;SDS011;6291;48.924;12.204;2022-08-04T08:14:15;3.90;;;1.60;;
12451;SDS011;6291;48.924;12.204;2022-08-04T08:19:20;4.07;;;1.83;;
12451;SDS011;6291;48.924;12.204;2022-08-04T08:24:24;2.27;;;1.60;;
12451;SDS011;6291;48.924;12.204;2022-08-04T08:29:28;2.25;;;1.63;;
12451;SDS011;6291;48.924;12.204;2022-08-04T08:34:33;1.60;;;1.50;;
12451;SDS011;6291;48.924;12.204;2022-08-04T08:39:37;2.47;;;1.60;;
12451;SDS011;6291;48.924;12.204;2022-08-04T08:50:30;2.20;;;1.50;;
12451;SDS011;6291;48.924;12.204;2022-08-04T08:56:04;1.83;;;1.42;;
12451;SDS011;6291;48.924;12.204;2022-08-04T09:01:20;3.30;;;1.70;;
12451;SDS011;6291;48.924;12.204;2022-08-04T09:06:49;2.27;;;1.60;;
12451;SDS011;6291;48.924;12.204;2022-08-04T09:12:08;1.60;;;1.50;;
12451;SDS011;6291;48.924;12.204;2022-08-04T09:17:21;1.50;;;1.40;;
12451;SDS011;6291;48.924;12.204;2022-08-04T09:22:34;2.87;;;1.57;;
12451;SDS011;6291;48.924;12.204;2022-08-04T09:27:45;3.53;;;1.70;;
12451;SDS011;6291;48.924;12.204;2022-08-04T09:32:56;2.90;;;1.50;;
12451;SDS011;6291;48.924;12.204;2022-08-04T09:38:14;3.08;;;1.58;;
12451;SDS011;6291;48.924;12.204;2022-08-04T09:43:26;2.20;;;1.58;;
12451;SDS011;6291;48.924;12.204;2022-08-04T09:48:58;1.50;;;1.40;;
12451;SDS011;6291;48.924;12.204;2022-08-04T09:54:11;1.50;;;1.40;;
12451;SDS011;6291;48.924;12.204;2022-08-04T09:59:33;1.50;;;1.40;;
12451;SDS011;6291;48.924;12.204;2022-08-04T10:04:43;2.33;;;1.38;;
12451;SDS011;6291;48.924;12.204;2022-08-04T10:09:51;1.77;;;1.30;;
12451;SDS011;6291;48.924;12.204;2022-08-04T10:15:06;1.60;;;1.48;;
12451;SDS011;6291;48.924;12.204;2022-08-04T10:20:13;2.20;;;1.10;;
12451;SDS011;6291;48.924;12.204;2022-08-04T10:25:48;2.20;;;1.30;;
12451;SDS011;6291;48.924;12.204;2022-08-04T10:31:09;2.08;;;1.33;;
12451;SDS011;6291;48.924;12.204;2022-08-04T10:36:21;2.80;;;1.35;;
12451;SDS011;6291;48.924;12.204;2022-08-04T10:41:32;2.08;;;1.40;;
12451;SDS011;6291;48.924;12.204;2022-08-04T10:46:42;1.50;;;1.20;;
12451;SDS011;6291;48.924;12.204;2022-08-04T10:51:50;2.13;;;1.30;;
12451;SDS011;6291;48.924;12.204;2022-08-04T10:57:02;1.37;;;1.20;;
12451;SDS011;6291;48.924;12.204;2022-08-04T11:02:11;1.40;;;1.30;;
12451;SDS011;6291;48.924;12.204;2022-08-04T11:07:28;1.63;;;1.20;;
12451;SDS011;6291;48.924;12.204;2022-08-04T11:12:36;2.90;;;1.20;;
12451;SDS011;6291;48.924;12.204;2022-08-04T11:17:42;1.20;;;1.10;;
12451;SDS011;6291;48.924;12.204;2022-08-04T11:22:49;2.40;;;1.20;;
12451;SDS011;6291;48.924;12.204;2022-08-04T11:28:02;3.00;;;1.20;;
12451;SDS011;6291;48.924;12.204;2022-08-04T11:33:16;3.30;;;1.60;;
12451;SDS011;6291;48.924;12.204;2022-08-04T11:38:26;2.78;;;1.20;;
12451;SDS011;6291;48.924;12.204;2022-08-04T11:43:40;1.73;;;1.13;;
12451;SDS011;6291;48.924;12.204;2022-08-04T11:49:04;1.40;;;1.20;;
12451;SDS011;6291;48.924;12.204;2022-08-04T11:54:09;1.20;;;1.10;;
12451;SDS011;6291;48.924;12.204;2022-08-04T11:59:15;1.03;;;1.03;;
12451;SDS011;6291;48.924;12.204;2022-08-04T12:04:23;1.08;;;1.08;;
12451;SDS011;6291;48.924;12.204;2022-08-04T12:09:45;3.00;;;1.30;;
12451;SDS011;6291;48.924;12.204;2022-08-04T12:14:57;1.15;;;1.02;;
12451;SDS011;6291;48.924;12.204;2022-08-04T12:20:07;2.47;;;1.10;;
12451;SDS011;6291;48.924;12.204;2022-08-04T12:25:38;1.97;;;1.30;;
12451;SDS011;6291;48.924;12.204;2022-08-04T12:30:48;1.30;;;1.10;;
12451;SDS011;6291;48.924;12.204;2022-08-04T12:36:08;1.83;;;1.10;;
12451;SDS011;6291;48.924;12.204;2022-08-04T12:41:22;1.20;;;1.10;;
12451;SDS011;6291;48.924;12.204;2022-08-04T12:46:31;2.00;;;1.03;;
12451;SDS011;6291;48.924;12.204;2022-08-04T12:51:36;1.60;;;1.20;;
12451;SDS011;6291;48.924;12.204;2022-08-04T12:57:03;1.70;;;1.30;;
12451;SDS011;6291;48.924;12.204;2022-08-04T13:02:11;1.27;;;1.17;;
12451;SDS011;6291;48.924;12.204;2022-08-04T13:07:18;2.13;;;1.30;;
12451;SDS011;6291;48.924;12.204;2022-08-04T13:12:23;1.27;;;1.23;;
12451;SDS011;6291;48.924;12.204;2022-08-04T13:17:42;1.40;;;1.30;;
12451;SDS011;6291;48.924;12.204;2022-08-04T13:22:49;1.65;;;1.55;;
12451;SDS011;6291;48.924;12.204;2022-08-04T13:27:53;1.47;;;1.37;;
12451;SDS011;6291;48.924;12.204;2022-08-04T13:33:00;3.78;;;1.40;;
12451;SDS011;6291;48.924;12.204;2022-08-04T13:38:05;2.35;;;1.30;;
12451;SDS011;6291;48.924;12.204;2022-08-04T13:43:21;1.50;;;1.40;;
12451;SDS011;6291;48.924;12.204;2022-08-04T13:48:48;1.40;;;1.30;;
12451;SDS011;6291;48.924;12.204;2022-08-04T13:54:11;2.00;;;1.50;;
12451;SDS011;6291;48.924;12.204;2022-08-04T13:59:15;1.40;;;1.27;;
12451;SDS011;6291;48.924;12.204;2022-08-04T14:04:21;1.60;;;1.40;;
12451;SDS011;6291;48.924;12.204;2022-08-04T14:09:28;1.83;;;1.48;;
12451;SDS011;6291;48.924;12.204;2022-08-04T14:14:43;1.33;;;1.23;;
12451;SDS011;6291;48.924;12.204;2022-08-04T14:19:50;1.93;;;1.33;;
12451;SDS011;6291;48.924;12.204;2022-08-04T14:24:55;2.20;;;1.40;;
12451;SDS011;6291;48.924;12.204;2022-08-04T14:29:59;3.67;;;3.38;;
12451;SDS011;6291;48.924;12.204;2022-08-04T14:35:10;1.55;;;1.30;;
12451;SDS011;6291;48.924;12.204;2022-08-04T14:40:21;3.25;;;1.30;;
12451;SDS011;6291;48.924;12.204;2022-08-04T14:45:32;4.57;;;1.60;;
12451;SDS011;6291;48.924;12.204;2022-08-04T14:50:39;1.40;;;1.30;;
12451;SDS011;6291;48.924;12.204;2022-08-04T14:55:44;1.40;;;1.30;;
12451;SDS011;6291;48.924;12.204;2022-08-04T15:00:50;1.87;;;1.40;;
12451;SDS011;6291;48.924;12.204;2022-08-04T15:05:59;1.88;;;1.33;;
12451;SDS011;6291;48.924;12.204;2022-08-04T15:11:13;3.00;;;1.40;;
12451;SDS011;6291;48.924;12.204;2022-08-04T15:16:25;2.00;;;1.40;;
12451;SDS011;6291;48.924;12.204;2022-08-04T15:21:31;2.28;;;1.30;;
12451;SDS011;6291;48.924;12.204;2022-08-04T15:26:37;3.58;;;1.30;;
12451;SDS011;6291;48.924;12.204;2022-08-04T15:31:43;2.00;;;1.20;;
12451;SDS011;6291;48.924;12.204;2022-08-04T15:37:10;2.33;;;1.50;;
12451;SDS011;6291;48.924;12.204;2022-08-04T15:42:20;1.33;;;1.23;;
12451;SDS011;6291;48.924;12.204;2022-08-04T15:47:32;1.73;;;1.38;;
12451;SDS011;6291;48.924;12.204;2022-08-04T15:58:13;2.33;;;1.37;;
12451;SDS011;6291;48.924;12.204;2022-08-04T16:09:03;2.73;;;1.30;;
12451;SDS011;6291;48.924;12.204;2022-08-04T16:14:08;2.17;;;1.60;;
12451;SDS011;6291;48.924;12.204;2022-08-04T16:19:15;2.28;;;1.30;;
12451;SDS011;6291;48.924;12.204;2022-08-04T16:24:38;1.30;;;1.20;;
12451;SDS011;6291;48.924;12.204;2022-08-04T16:29:42;2.83;;;1.30;;
12451;SDS011;6291;48.924;12.204;2022-08-04T16:34:48;2.70;;;1.30;;
12451;SDS011;6291;48.924;12.204;2022-08-04T16:45:46;1.30;;;1.20;;
12451;SDS011;6291;48.924;12.204;2022-08-04T16:50:52;1.80;;;1.30;;
12451;SDS011;6291;48.924;12.204;2022-08-04T16:56:07;3.08;;;1.70;;
12451;SDS011;6291;48.924;12.204;2022-08-04T17:01:12;1.80;;;1.50;;
12451;SDS011;6291;48.924;12.204;2022-08-04T17:06:33;2.90;;;1.50;;
12451;SDS011;6291;48.924;12.204;2022-08-04T17:11:40;2.70;;;1.25;;
12451;SDS011;6291;48.924;12.204;2022-08-04T17:16:44;2.50;;;1.90;;
12451;SDS011;6291;48.924;12.204;2022-08-04T17:21:49;1.67;;;1.02;;
12451;SDS011;6291;48.924;12.204;2022-08-04T17:26:54;2.80;;;1.40;;
12451;SDS011;6291;48.924;12.204;2022-08-04T17:32:01;3.15;;;1.40;;
12451;SDS011;6291;48.924;12.204;2022-08-04T17:37:06;3.35;;;1.40;;
12451;SDS011;6291;48.924;12.204;2022-08-04T17:42:32;3.78;;;1.50;;
12451;SDS011;6291;48.924;12.204;2022-08-04T17:47:47;1.70;;;1.40;;
12451;SDS011;6291;48.924;12.204;2022-08-04T17:52:58;2.35;;;1.30;;
12451;SDS011;6291;48.924;12.204;2022-08-04T17:58:12;2.00;;;1.33;;
12451;SDS011;6291;48.924;12.204;2022-08-04T18:03:22;1.53;;;1.43;;
12451;SDS011;6291;48.924;12.204;2022-08-04T18:08:30;1.45;;;1.35;;
12451;SDS011;6291;48.924;12.204;2022-08-04T18:13:52;1.88;;;1.45;;
12451;SDS011;6291;48.924;12.204;2022-08-04T18:19:06;3.50;;;1.60;;
12451;SDS011;6291;48.924;12.204;2022-08-04T18:24:11;6.47;;;1.60;;
12451;SDS011;6291;48.924;12.204;2022-08-04T18:29:16;7.68;;;1.50;;
12451;SDS011;6291;48.924;12.204;2022-08-04T18:34:32;3.28;;;1.60;;
12451;SDS011;6291;48.924;12.204;2022-08-04T18:39:41;2.20;;;1.53;;
12451;SDS011;6291;48.924;12.204;2022-08-04T18:45:07;1.80;;;1.38;;
12451;SDS011;6291;48.924;12.204;2022-08-04T18:50:11;2.70;;;1.50;;
12451;SDS011;6291;48.924;12.204;2022-08-04T18:55:35;7.93;;;1.80;;
12451;SDS011;6291;48.924;12.204;2022-08-04T19:00:59;2.78;;;1.50;;
12451;SDS011;6291;48.924;12.204;2022-08-04T19:06:14;5.15;;;4.00;;
12451;SDS011;6291;48.924;12.204;2022-08-04T19:11:26;2.53;;;1.70;;
12451;SDS011;6291;48.924;12.204;2022-08-04T19:16:51;1.67;;;1.42;;
12451;SDS011;6291;48.924;12.204;2022-08-04T19:21:56;2.00;;;1.63;;
12451;SDS011;6291;48.924;12.204;2022-08-04T19:27:07;2.53;;;1.50;;
12451;SDS011;6291;48.924;12.204;2022-08-04T19:32:13;2.20;;;1.52;;
12451;SDS011;6291;48.924;12.204;2022-08-04T19:37:17;1.70;;;1.60;;
12451;SDS011;6291;48.924;12.204;2022-08-04T19:42:40;1.60;;;1.50;;
12451;SDS011;6291;48.924;12.204;2022-08-04T19:47:45;5.65;;;1.70;;
12451;SDS011;6291;48.924;12.204;2022-08-04T19:53:09;2.08;;;1.50;;
12451;SDS011;6291;48.924;12.204;2022-08-04T19:58:20;2.10;;;1.70;;
12451;SDS011;6291;48.924;12.204;2022-08-04T20:03:28;2.97;;;1.60;;
12451;SDS011;6291;48.924;12.204;2022-08-04T20:08:51;3.30;;;1.60;;
12451;SDS011;6291;48.924;12.204;2022-08-04T20:13:57;1.73;;;1.60;;
12451;SDS011;6291;48.924;12.204;2022-08-04T20:19:04;2.92;;;1.77;;
12451;SDS011;6291;48.924;12.204;2022-08-04T20:24:14;2.83;;;1.70;;
12451;SDS011;6291;48.924;12.204;2022-08-04T20:29:37;3.10;;;1.80;;
12451;SDS011;6291;48.924;12.204;2022-08-04T20:34:48;2.77;;;1.90;;
12451;SDS011;6291;48.924;12.204;2022-08-04T20:39:52;3.75;;;1.80;;
12451;SDS011;6291;48.924;12.204;2022-08-04T20:44:56;1.98;;;1.88;;
12451;SDS011;6291;48.924;12.204;2022-08-04T20:50:04;3.55;;;2.00;;
12451;SDS011;6291;48.924;12.204;2022-08-04T20:55:10;3.05;;;1.83;;
12451;SDS011;6291;48.924;12.204;2022-08-04T21:00:13;2.43;;;1.87;;
12451;SDS011;6291;48.924;12.204;2022-08-04T21:05:28;2.63;;;1.87;;
12451;SDS011;6291;48.924;12.204;2022-08-04T21:10:32;2.17;;;1.90;;
12451;SDS011;6291;48.924;12.204;2022-08-04T21:15:36;3.55;;;2.03;;
12451;SDS011;6291;48.924;12.204;2022-08-04T21:21:01;1.80;;;1.70;;
12451;SDS011;6291;48.924;12.204;2022-08-04T21:26:04;2.25;;;1.90;;
12451;SDS011;6291;48.924;12.204;2022-08-04T21:31:11;4.35;;;2.00;;
12451;SDS011;6291;48.924;12.204;2022-08-04T21:36:24;2.73;;;1.80;;
12451;SDS011;6291;48.924;12.204;2022-08-04T21:41:28;2.97;;;1.80;;
12451;SDS011;6291;48.924;12.204;2022-08-04T21:46:32;3.67;;;2.10;;
12451;SDS011;6291;48.924;12.204;2022-08-04T21:51:46;3.35;;;2.00;;
12451;SDS011;6291;48.924;12.204;2022-08-04T21:57:01;2.85;;;2.20;;
12451;SDS011;6291;48.924;12.204;2022-08-04T22:02:06;3.40;;;2.20;;
12451;SDS011;6291;48.924;12.204;2022-08-04T22:07:11;4.45;;;2.03;;
12451;SDS011;6291;48.924;12.204;2022-08-04T22:12:17;4.88;;;2.20;;
12451;SDS011;6291;48.924;12.204;2022-08-04T22:17:22;3.00;;;2.00;;
12451;SDS011;6291;48.924;12.204;2022-08-04T22:22:27;4.25;;;2.10;;
12451;SDS011;6291;48.924;12.204;2022-08-04T22:27:35;3.90;;;2.20;;
12451;SDS011;6291;48.924;12.204;2022-08-04T22:33:01;2.47;;;2.17;;
12451;SDS011;6291;48.924;12.204;2022-08-04T22:38:09;5.03;;;2.00;;
12451;SDS011;6291;48.924;12.204;2022-08-04T22:43:33;3.90;;;2.40;;
12451;SDS011;6291;48.924;12.204;2022-08-04T22:48:38;4.00;;;2.42;;
12451;SDS011;6291;48.924;12.204;2022-08-04T22:53:46;3.35;;;2.97;;
12451;SDS011;6291;48.924;12.204;2022-08-04T22:58:49;5.67;;;3.17;;
12451;SDS011;6291;48.924;12.204;2022-08-04T23:03:54;4.53;;;2.30;;
12451;SDS011;6291;48.924;12.204;2022-08-04T23:09:01;4.63;;;2.50;;
12451;SDS011;6291;48.924;12.204;2022-08-04T23:14:05;6.10;;;2.35;;
12451;SDS011;6291;48.924;12.204;2022-08-04T23:19:09;5.32;;;2.20;;
12451;SDS011;6291;48.924;12.204;2022-08-04T23:24:17;3.65;;;2.40;;
12451;SDS011;6291;48.924;12.204;2022-08-04T23:29:20;4.73;;;2.40;;
12451;SDS011;6291;48.924;12.204;2022-08-04T23:34:24;3.60;;;2.30;;
12451;SDS011;6291;48.924;12.204;2022-08-04T23:39:31;4.22;;;2.30;;
12451;SDS011;6291;48.924;12.204;2022-08-04T23:44:54;5.00;;;2.50;;
12451;SDS011;6291;48.924;12.204;2022-08-04T23:55:03;5.00;;;2.40;;
